createdAt,value
2023-01-18T00:04:58.376Z,27.90
2023-01-18T00:10:14.061Z,25.95
2023-01-18T00:15:28.998Z,31.98
2023-01-18T00:20:44.009Z,27.08
2023-01-18T00:25:59.330Z,22.92
2023-01-18T00:31:15.465Z,23.15
2023-01-18T00:36:30.982Z,23.83
2023-01-18T00:41:45.982Z,23.17
2023-01-18T00:47:01.008Z,20.55
2023-01-18T00:52:16.328Z,20.73
2023-01-18T00:57:32.011Z,19.73
2023-01-18T01:02:47.067Z,20.00
2023-01-18T01:08:02.027Z,18.38
2023-01-18T01:13:17.001Z,16.98
2023-01-18T01:18:32.030Z,17.65
2023-01-18T01:23:47.006Z,21.08
2023-01-18T01:29:02.313Z,17.48
2023-01-18T01:34:18.036Z,18.23
2023-01-18T01:39:33.021Z,19.92
2023-01-18T01:44:48.107Z,17.20
2023-01-18T01:50:03.125Z,22.50
2023-01-18T01:55:18.048Z,27.58
2023-01-18T02:00:33.371Z,20.17
2023-01-18T02:05:49.405Z,23.45
2023-01-18T02:11:05.034Z,28.58
2023-01-18T02:16:20.331Z,23.25
2023-01-18T02:21:36.056Z,28.58
2023-01-18T02:26:51.004Z,24.20
2023-01-18T02:32:06.073Z,27.80
2023-01-18T02:37:21.057Z,28.33
2023-01-18T02:42:36.002Z,22.23
2023-01-18T02:47:51.025Z,22.67
2023-01-18T02:53:06.361Z,21.48
2023-01-18T02:58:21.725Z,25.10
2023-01-18T03:03:36.992Z,25.17
2023-01-18T03:08:52.080Z,25.02
2023-01-18T03:14:07.032Z,23.20
2023-01-18T03:19:22.062Z,19.73
2023-01-18T03:24:37.370Z,19.67
2023-01-18T03:29:54.084Z,19.73
2023-01-18T03:35:10.086Z,17.42
2023-01-18T03:40:25.219Z,21.50
2023-01-18T03:45:40.372Z,14.25
2023-01-18T03:50:56.029Z,15.70
2023-01-18T03:56:11.296Z,23.58
2023-01-18T04:01:27.455Z,15.23
2023-01-18T04:06:43.340Z,15.70
2023-01-18T04:11:58.839Z,17.67
2023-01-18T04:17:14.032Z,18.05
2023-01-18T04:22:29.216Z,15.93
2023-01-18T04:27:44.028Z,16.55
2023-01-18T04:32:59.296Z,22.23
2023-01-18T04:38:15.007Z,24.92
2023-01-18T04:43:30.151Z,22.23
2023-01-18T04:48:44.990Z,15.75
2023-01-18T04:54:00.051Z,13.18
2023-01-18T04:59:15.036Z,15.65
2023-01-18T05:04:29.992Z,18.65
2023-01-18T05:09:45.030Z,15.88
2023-01-18T05:14:59.987Z,14.45
2023-01-18T05:20:15.354Z,22.27
2023-01-18T05:25:31.000Z,14.75
2023-01-18T05:30:46.063Z,11.30
2023-01-18T05:36:01.043Z,11.50
2023-01-18T05:41:16.051Z,11.48
2023-01-18T05:46:32.057Z,12.50
2023-01-18T05:51:47.003Z,15.30
2023-01-18T05:57:02.087Z,11.40
2023-01-18T06:02:17.110Z,11.02
2023-01-18T06:07:31.966Z,11.30
2023-01-18T06:12:47.370Z,10.02
2023-01-18T06:18:03.053Z,10.05
2023-01-18T06:23:18.045Z,11.85
2023-01-18T06:28:33.580Z,12.00
2023-01-18T06:33:49.013Z,9.10
2023-01-18T06:39:03.992Z,8.75
2023-01-18T06:44:19.000Z,8.82
2023-01-18T06:49:34.033Z,5.75
2023-01-18T06:54:49.099Z,7.43
2023-01-18T07:00:05.121Z,8.85
2023-01-18T07:05:20.356Z,7.47
2023-01-18T07:10:36.062Z,6.63
2023-01-18T07:15:51.384Z,10.68
2023-01-18T07:21:06.871Z,10.13
2023-01-18T07:26:22.051Z,11.15
2023-01-18T07:31:37.259Z,8.23
2023-01-18T07:36:52.053Z,7.97
2023-01-18T07:42:07.072Z,8.00
2023-01-18T07:47:22.392Z,9.13
2023-01-18T07:52:38.067Z,9.13
2023-01-18T07:57:53.091Z,157.95
2023-01-18T08:03:08.210Z,150.38
2023-01-18T08:08:23.052Z,159.82
2023-01-18T08:13:38.359Z,145.45
2023-01-18T08:18:54.022Z,153.95
2023-01-18T08:24:09.368Z,131.52
2023-01-18T08:29:25.059Z,119.00
2023-01-18T08:34:40.045Z,114.18
2023-01-18T08:39:55.307Z,113.07
2023-01-18T08:45:11.345Z,112.50
2023-01-18T08:50:27.301Z,109.80
2023-01-18T08:55:43.139Z,104.53
2023-01-18T09:00:58.095Z,102.82
2023-01-18T09:06:13.299Z,75.30
2023-01-18T09:11:29.028Z,80.13
2023-01-18T09:16:44.125Z,74.60
2023-01-18T09:21:59.111Z,61.63
2023-01-18T09:27:14.307Z,68.78
2023-01-18T09:32:30.019Z,59.72
2023-01-18T09:37:45.138Z,50.72
2023-01-18T09:43:00.473Z,50.15
2023-01-18T09:48:16.039Z,58.17
2023-01-18T09:53:31.044Z,51.70
2023-01-18T09:58:46.057Z,46.28
2023-01-18T10:04:00.843Z,39.78
2023-01-18T10:09:16.124Z,35.08
2023-01-18T10:14:31.074Z,30.83
2023-01-18T10:19:46.397Z,35.88
2023-01-18T10:25:02.088Z,39.65
2023-01-18T10:30:17.069Z,37.00
2023-01-18T10:35:32.089Z,30.70
2023-01-18T10:40:47.024Z,34.40
2023-01-18T10:46:02.093Z,26.25
2023-01-18T10:51:16.821Z,31.23
2023-01-18T10:56:32.127Z,20.42
2023-01-18T11:01:47.260Z,20.80
2023-01-18T11:07:03.022Z,28.00
2023-01-18T11:12:17.993Z,17.63
2023-01-18T11:17:33.333Z,21.65
2023-01-18T11:22:49.027Z,18.48
2023-01-18T11:28:04.097Z,17.40
2023-01-18T11:33:19.014Z,17.13
2023-01-18T11:38:34.097Z,14.90
2023-01-18T11:43:49.031Z,16.90
2023-01-18T11:49:04.022Z,13.73
2023-01-18T11:54:19.351Z,9.40
2023-01-18T11:59:35.099Z,12.88
2023-01-18T12:04:50.055Z,12.05
2023-01-18T12:10:05.327Z,10.25
2023-01-18T12:15:21.092Z,11.23
2023-01-18T12:20:36.438Z,10.68
2023-01-18T12:26:03.132Z,10.85
2023-01-18T12:31:26.324Z,8.30
2023-01-18T12:36:42.031Z,7.07
2023-01-18T12:41:57.349Z,10.68
2023-01-18T12:47:13.027Z,6.88
2023-01-18T12:52:28.077Z,8.63
2023-01-18T12:57:44.284Z,8.27
2023-01-18T13:03:00.803Z,8.48
2023-01-18T13:08:16.071Z,8.35
2023-01-18T13:13:31.032Z,8.70
2023-01-18T13:18:45.845Z,7.10
2023-01-18T13:24:01.092Z,8.98
2023-01-18T13:29:16.404Z,4.93
2023-01-18T13:34:32.385Z,5.57
2023-01-18T13:39:47.852Z,10.15
2023-01-18T13:45:02.856Z,7.82
2023-01-18T13:50:18.033Z,5.45
2023-01-18T13:55:33.020Z,6.30
2023-01-18T14:00:48.061Z,5.07
2023-01-18T14:06:03.123Z,5.78
2023-01-18T14:11:18.058Z,5.07
2023-01-18T14:16:33.075Z,6.57
2023-01-18T14:21:48.101Z,7.25
2023-01-18T14:27:03.491Z,4.75
2023-01-18T14:32:19.094Z,4.03
2023-01-18T14:37:34.124Z,2.85
2023-01-18T14:42:49.113Z,5.45
2023-01-18T14:48:04.035Z,4.75
2023-01-18T14:53:19.151Z,3.35
2023-01-18T14:58:34.350Z,8.10
2023-01-18T15:03:50.343Z,7.43
2023-01-18T15:09:06.111Z,3.42
2023-01-18T15:14:21.073Z,7.35
2023-01-18T15:19:36.079Z,5.20
2023-01-18T15:24:50.982Z,3.60
2023-01-18T15:30:06.131Z,5.35
2023-01-18T15:35:21.075Z,2.80
2023-01-18T15:40:36.084Z,4.22
2023-01-18T15:45:51.189Z,4.32
2023-01-18T15:51:06.091Z,3.38
2023-01-18T15:56:21.101Z,6.03
2023-01-18T16:01:36.212Z,4.28
2023-01-18T16:06:51.137Z,8.98
2023-01-18T16:12:06.131Z,16.70
2023-01-18T16:17:21.150Z,20.75
2023-01-18T16:22:36.142Z,31.50
2023-01-18T16:27:51.117Z,29.33
2023-01-18T16:33:06.125Z,31.92
2023-01-18T16:38:21.125Z,36.97
2023-01-18T16:43:36.081Z,40.67
2023-01-18T16:48:51.054Z,36.53
2023-01-18T16:54:06.137Z,41.28
2023-01-18T16:59:21.151Z,47.80
2023-01-18T17:04:36.061Z,59.33
2023-01-18T17:09:53.229Z,71.05
2023-01-18T17:15:09.133Z,90.50
2023-01-18T17:20:23.893Z,97.38
2023-01-18T17:25:39.060Z,100.35
2023-01-18T17:30:54.151Z,104.53
2023-01-18T17:36:09.438Z,100.88
2023-01-18T17:41:27.327Z,110.13
2023-01-18T17:46:42.873Z,105.95
2023-01-18T17:51:58.074Z,109.18
2023-01-18T17:57:13.162Z,102.13
2023-01-18T18:02:28.107Z,104.70
2023-01-18T18:07:43.047Z,103.80
2023-01-18T18:12:58.472Z,91.95
2023-01-18T18:18:22.768Z,100.88
2023-01-18T18:23:47.477Z,94.25
2023-01-18T18:29:03.229Z,90.68
2023-01-18T18:34:17.893Z,89.28
2023-01-18T18:39:33.412Z,84.63
2023-01-18T18:44:49.376Z,82.03
2023-01-18T18:50:05.083Z,76.80
2023-01-18T18:55:20.217Z,77.60
2023-01-18T19:00:35.219Z,69.43
2023-01-18T19:05:50.144Z,66.45
2023-01-18T19:11:05.126Z,65.22
2023-01-18T19:16:20.445Z,59.80
2023-01-18T19:21:36.060Z,55.50
2023-01-18T19:26:51.118Z,53.78
2023-01-18T19:32:06.081Z,48.45
2023-01-18T19:37:20.882Z,45.78
2023-01-18T19:42:36.098Z,46.42
2023-01-18T19:47:51.092Z,40.78
2023-01-18T19:53:06.112Z,45.78
2023-01-18T19:58:20.935Z,34.78
2023-01-18T20:03:36.443Z,31.45
2023-01-18T20:08:52.550Z,26.95
2023-01-18T20:14:07.869Z,29.17
2023-01-18T20:19:23.091Z,25.50
2023-01-18T20:24:38.164Z,22.75
2023-01-18T20:29:53.088Z,16.13
2023-01-18T20:35:08.152Z,16.25
2023-01-18T20:40:23.150Z,16.85
2023-01-18T20:45:38.166Z,15.73
2023-01-18T20:50:53.113Z,18.02
2023-01-18T20:56:14.183Z,16.95
2023-01-18T21:01:38.167Z,15.73
2023-01-18T21:06:53.482Z,12.98
2023-01-18T21:12:09.128Z,11.32
2023-01-18T21:17:24.138Z,10.90
2023-01-18T21:22:39.066Z,10.70
2023-01-18T21:27:54.168Z,12.00
2023-01-18T21:33:09.392Z,11.30
2023-01-18T21:38:25.080Z,12.00
2023-01-18T21:43:40.095Z,7.05
2023-01-18T21:55:07.161Z,7.72
2023-01-18T22:00:22.484Z,8.45
2023-01-18T22:05:40.938Z,7.97
2023-01-18T22:10:57.695Z,8.57
2023-01-18T22:16:13.842Z,6.25
2023-01-18T22:21:29.137Z,9.73
2023-01-18T22:26:44.132Z,7.13
2023-01-18T22:31:58.848Z,8.98
2023-01-18T22:37:14.120Z,7.38
2023-01-18T22:42:29.113Z,5.80
2023-01-18T22:47:44.604Z,8.32
2023-01-18T22:53:00.107Z,8.00
2023-01-18T22:58:15.074Z,6.57
2023-01-18T23:03:30.127Z,6.05
2023-01-18T23:08:45.125Z,25.75
2023-01-18T23:14:00.467Z,7.10
2023-01-18T23:19:16.064Z,8.77
2023-01-18T23:24:31.061Z,7.28
2023-01-18T23:29:46.187Z,6.55
2023-01-18T23:35:01.127Z,5.47
2023-01-18T23:40:16.432Z,4.85
2023-01-18T23:45:32.141Z,7.07
2023-01-18T23:50:47.451Z,6.75
2023-01-18T23:56:03.437Z,9.32
